^^
Station Historical Data
Daily Summary for March 25, 2017 Units:  English    Metric   Both
« Previous Day
Next Day »
Daily Weekly Monthly Yearly Custom
  High: Low: Average:
Temperature: 52.5 °F 38.6 °F 45.7 °F
Dew Point: 42.2 °F 35.1 °F 38.3 °F
Humidity: 94% 57% 76%
Wind Speed: 5.0mph 0.0mph 1mph
Wind Gust: 13.0mph - -
Wind- - SW
Pressure: 30.41 in 30.08 in -
Precipitation: 0.03 in    
Historical Graphs
 
 
Tabular Data for March 25, 2017
Time Temperature Dew Point Pressure Wind Wind Speed Wind Gust Humidity Rainfall Rate (Hourly) Conditions
00:00 49.8 °F 35.2 °F 30.13 in South 5.0 mph 10.0 mph 57% 0.00 in RA
00:15 49.8 °F 35.1 °F 30.12 in South 3.0 mph 9.0 mph 57% 0.00 in CLR
00:30 50.0 °F 35.4 °F 30.11 in SSW 5.0 mph 10.0 mph 57% 0.00 in CLR
00:45 50.0 °F 35.8 °F 30.11 in SSW 1.0 mph 12.0 mph 58% 0.00 in CLR
01:00 49.7 °F 35.5 °F 30.11 in West 1.0 mph 5.0 mph 58% 0.00 in CLR
02:15 47.5 °F 35.5 °F 30.10 in Calm   4.0 mph 63% 0.00 in CLR
02:30 47.6 °F 35.2 °F 30.10 in Calm   5.0 mph 62% 0.00 in CLR
02:45 47.6 °F 35.6 °F 30.10 in South 1.0 mph 3.0 mph 63% 0.00 in CLR
03:00 47.1 °F 35.5 °F 30.10 in SW 2.0 mph 6.0 mph 64% 0.00 in CLR
03:15 48.0 °F 36.0 °F 30.09 in SSW 3.0 mph 8.0 mph 63% 0.00 in CLR
03:30 48.2 °F 35.8 °F 30.09 in SSW 2.0 mph 9.0 mph 62% 0.00 in CLR
03:45 48.4 °F 36.0 °F 30.09 in South 3.0 mph 7.0 mph 62% 0.00 in CLR
04:00 48.7 °F 36.3 °F 30.08 in SSW 2.0 mph 6.0 mph 62% 0.00 in CLR
04:15 49.0 °F 36.5 °F 30.08 in SSW 2.0 mph 5.0 mph 62% 0.00 in CLR
04:30 48.8 °F 36.8 °F 30.08 in SW 1.0 mph 4.0 mph 63% 0.00 in CLR
04:45 48.8 °F 36.8 °F 30.08 in SW 2.0 mph 6.0 mph 63% 0.00 in CLR
05:00 48.7 °F 37.1 °F 30.09 in WSW 3.0 mph 7.0 mph 64% 0.00 in CLR
05:15 49.3 °F 37.2 °F 30.09 in WSW 1.0 mph 6.0 mph 63% 0.00 in CLR
05:30 49.3 °F 37.2 °F 30.10 in Calm   4.0 mph 63% 0.00 in CLR
05:45 48.5 °F 36.9 °F 30.10 in Calm   2.0 mph 64% 0.00 in CLR
06:00 47.4 °F 36.6 °F 30.11 in Calm   1.0 mph 66% 0.00 in CLR
06:15 47.1 °F 37.0 °F 30.12 in Calm     68% 0.00 in CLR
06:30 46.7 °F 36.7 °F 30.14 in Calm   1.0 mph 68% 0.00 in CLR
06:45 46.7 °F 36.7 °F 30.14 in ENE 1.0 mph 1.0 mph 68% 0.00 in CLR
07:00 45.3 °F 36.4 °F 30.14 in Calm   1.0 mph 71% 0.00 in CLR
07:15 45.5 °F 36.6 °F 30.14 in Calm     71% 0.00 in CLR
07:30 45.2 °F 36.7 °F 30.15 in Calm     72% 0.00 in CLR
07:45 46.5 °F 37.9 °F 30.15 in Calm   1.0 mph 72% 0.00 in CLR
08:00 45.5 °F 37.4 °F 30.15 in SW 1.0 mph 2.0 mph 73% 0.00 in CLR
08:15 45.7 °F 37.9 °F 30.18 in Calm   1.0 mph 74% 0.00 in FEW
08:30 46.3 °F 37.4 °F 30.18 in Calm   3.0 mph 71% 0.00 in FEW
08:45 46.4 °F 37.9 °F 30.18 in NE 1.0 mph 3.0 mph 72% 0.00 in FEW
09:00 46.9 °F 38.0 °F 30.19 in Calm   1.0 mph 71% 0.00 in FEW
09:15 46.9 °F 37.6 °F 30.19 in NE 2.0 mph 3.0 mph 70% 0.00 in SCT
09:30 46.7 °F 39.2 °F 30.20 in Calm   2.0 mph 75% 0.00 in SCT
09:45 46.9 °F 40.1 °F 30.19 in NNW 1.0 mph 1.0 mph 77% 0.00 in SCT
10:00 47.2 °F 40.0 °F 30.19 in Calm   2.0 mph 76% 0.00 in SCT
10:15 48.3 °F 40.4 °F 30.19 in Calm   2.0 mph 74% 0.00 in -RA
10:30 48.4 °F 39.8 °F 30.18 in Calm   2.0 mph 72% 0.00 in -RA
10:45 48.5 °F 40.5 °F 30.19 in Calm   3.0 mph 74% 0.00 in -RA
11:00 48.5 °F 40.9 °F 30.19 in North 1.0 mph 2.0 mph 75% 0.00 in -RA
11:15 47.9 °F 40.7 °F 30.19 in WNW 1.0 mph 5.0 mph 76% 0.00 in -RA
11:30 46.8 °F 39.9 °F 30.21 in NNW 1.0 mph 3.0 mph 77% 0.00 in -RA
11:45 47.7 °F 40.5 °F 30.19 in NNE 1.0 mph 4.0 mph 76% 0.00 in -RA
12:00 49.4 °F 42.1 °F 30.17 in Calm   2.0 mph 76% 0.00 in -RA
12:15 49.3 °F 40.3 °F 30.21 in Calm   5.0 mph 71% 0.00 in BKN
12:30 49.4 °F 40.4 °F 30.20 in NNW 2.0 mph 5.0 mph 71% 0.00 in BKN
12:45 51.8 °F 41.9 °F 30.20 in NNW 2.0 mph 5.0 mph 69% 0.00 in BKN
13:00 52.5 °F 42.2 °F 30.21 in NW 1.0 mph 6.0 mph 68% 0.00 in BKN
13:15 51.7 °F 41.5 °F 30.22 in NNW 2.0 mph 5.0 mph 68% 0.00 in SCT
13:30 50.6 °F 41.2 °F 30.21 in NNE 1.0 mph 4.0 mph 70% 0.00 in SCT
13:45 51.1 °F 41.7 °F 30.22 in WNW 1.0 mph 3.0 mph 70% 0.00 in SCT
14:00 49.8 °F 41.2 °F 30.23 in NW 1.0 mph 5.0 mph 72% 0.00 in SCT
14:15 49.1 °F 40.5 °F 30.22 in North 2.0 mph 9.0 mph 72% 0.00 in -RA
14:30 48.7 °F 40.4 °F 30.23 in North 1.0 mph 9.0 mph 73% 0.00 in -RA
14:45 48.3 °F 40.7 °F 30.22 in North 1.0 mph 9.0 mph 75% 0.00 in -RA
15:00 48.4 °F 40.9 °F 30.22 in NNW 2.0 mph 6.0 mph 75% 0.00 in -RA
15:15 48.1 °F 40.2 °F 30.24 in NW 3.0 mph 8.0 mph 74% 0.00 in -RA
15:30 47.4 °F 39.9 °F 30.24 in NNW 2.0 mph 12.0 mph 75% 0.00 in -RA
15:45 46.0 °F 38.9 °F 30.26 in NW 3.0 mph 12.0 mph 76% 0.00 in -RA
16:00 44.8 °F 38.7 °F 30.27 in NNE 1.0 mph 10.0 mph 79% 0.00 in -RA
16:15 43.7 °F 38.2 °F 30.29 in NW 3.0 mph 13.0 mph 81% 0.00 in BKN
16:30 42.8 °F 37.7 °F 30.30 in NW 2.0 mph 12.0 mph 82% 0.00 in BKN
16:45 42.9 °F 38.1 °F 30.29 in Calm   6.0 mph 83% 0.00 in BKN
17:00 44.4 °F 39.6 °F 30.28 in NNW 3.0 mph 7.0 mph 83% 0.00 in BKN
17:15 45.8 °F 40.3 °F 30.28 in NNE 1.0 mph 4.0 mph 81% 0.00 in BKN
17:30 45.9 °F 40.4 °F 30.28 in Calm   4.0 mph 81% 0.00 in BKN
17:45 43.8 °F 38.4 °F 30.29 in Calm   4.0 mph 81% 0.00 in BKN
18:00 43.0 °F 37.9 °F 30.29 in NNE 1.0 mph 3.0 mph 82% 0.00 in BKN
18:15 41.9 °F 38.0 °F 30.29 in Calm   4.0 mph 86% 0.02 in -RA
18:30 41.2 °F 38.2 °F 30.28 in Calm   3.0 mph 89% 0.01 in -RA
18:45 40.8 °F 38.1 °F 30.30 in North 1.0 mph 5.0 mph 90% 0.00 in -RA
19:00 40.0 °F 37.9 °F 30.32 in NNW 1.0 mph 6.0 mph 92% 0.00 in -RA
19:15 39.7 °F 37.6 °F 30.33 in Calm   5.0 mph 92% 0.00 in OVC
19:30 39.9 °F 38.0 °F 30.34 in NNW 1.0 mph 6.0 mph 93% 0.00 in OVC
19:45 40.1 °F 38.2 °F 30.36 in Calm   4.0 mph 93% 0.00 in OVC
20:00 39.9 °F 38.1 °F 30.36 in Calm   4.0 mph 93% 0.00 in OVC
20:15 39.8 °F 38.2 °F 30.36 in Calm   5.0 mph 94% 0.00 in BKN
20:30 40.6 °F 39.0 °F 30.37 in NNW 3.0 mph 7.0 mph 94% 0.00 in BKN
20:45 39.3 °F 37.2 °F 30.38 in NNW 1.0 mph 5.0 mph 92% 0.00 in BKN
21:00 38.6 °F 36.8 °F 30.38 in Calm   4.0 mph 93% 0.00 in BKN
21:15 38.9 °F 37.3 °F 30.39 in Calm   2.0 mph 94% 0.00 in OVC
21:30 39.3 °F 37.7 °F 30.39 in Calm   1.0 mph 94% 0.00 in OVC
21:45 39.8 °F 38.2 °F 30.40 in NNW 1.0 mph 2.0 mph 94% 0.00 in OVC
22:00 40.0 °F 38.4 °F 30.39 in Calm   3.0 mph 94% 0.00 in OVC
22:15 40.0 °F 38.4 °F 30.40 in Calm   4.0 mph 94% 0.00 in BKN
22:30 39.9 °F 38.3 °F 30.41 in Calm   5.0 mph 94% 0.00 in BKN
22:45 39.6 °F 37.7 °F 30.41 in Calm   4.0 mph 93% 0.00 in BKN
23:00 39.7 °F 38.1 °F 30.40 in Calm   1.0 mph 94% 0.00 in BKN
23:15 39.6 °F 38.1 °F 30.41 in Calm   2.0 mph 94% 0.00 in BKN
23:30 39.5 °F 37.6 °F 30.41 in Calm   3.0 mph 93% 0.00 in BKN
23:45 39.2 °F 37.3 °F 30.41 in Calm   1.0 mph 93% 0.00 in BKN
TarryTown NY Weather
Compliments of Weather Underground - 1.5 mb